createdAt,value
2023-03-17T00:01:12.398Z,2.08
2023-03-17T00:03:41.381Z,1.83
2023-03-17T00:06:15.576Z,1.70
2023-03-17T00:08:42.957Z,1.90
2023-03-17T00:11:14.887Z,1.63
2023-03-17T00:13:42.219Z,1.80
2023-03-17T00:16:21.608Z,1.90
2023-03-17T00:18:49.561Z,1.90
2023-03-17T00:21:21.560Z,1.90
2023-03-17T00:23:50.922Z,1.80
2023-03-17T00:26:18.462Z,1.63
2023-03-17T00:28:44.891Z,2.20
2023-03-17T00:31:17.231Z,1.73
2023-03-17T00:33:45.478Z,1.97
2023-03-17T00:36:21.075Z,1.85
2023-03-17T00:38:47.526Z,2.47
2023-03-17T00:41:13.932Z,2.20
2023-03-17T00:43:41.279Z,2.10
2023-03-17T00:46:17.326Z,1.80
2023-03-17T00:48:45.795Z,1.80
2023-03-17T00:51:12.784Z,2.10
2023-03-17T00:53:40.159Z,2.00
2023-03-17T00:56:14.109Z,1.90
2023-03-17T00:58:40.563Z,1.93
2023-03-17T01:01:06.999Z,2.00
2023-03-17T01:03:33.339Z,2.10
2023-03-17T01:06:01.473Z,2.13
2023-03-17T01:08:29.000Z,2.13
2023-03-17T01:10:56.188Z,2.30
2023-03-17T01:13:23.129Z,2.08
2023-03-17T01:15:50.765Z,2.28
2023-03-17T01:18:20.250Z,2.10
2023-03-17T01:20:47.903Z,2.00
2023-03-17T01:23:14.251Z,2.20
2023-03-17T01:25:41.766Z,2.15
2023-03-17T01:28:12.983Z,2.20
2023-03-17T01:30:40.302Z,2.42
2023-03-17T01:33:10.866Z,2.08
2023-03-17T01:35:37.888Z,1.67
2023-03-17T01:38:06.173Z,1.83
2023-03-17T01:40:36.145Z,2.50
2023-03-17T01:43:17.163Z,2.00
2023-03-17T01:46:11.306Z,2.30
2023-03-17T01:48:41.791Z,1.60
2023-03-17T01:51:13.550Z,1.95
2023-03-17T01:53:40.043Z,2.28
2023-03-17T01:56:07.414Z,1.92
2023-03-17T01:58:33.804Z,2.15
2023-03-17T02:01:00.204Z,2.00
2023-03-17T02:03:27.126Z,1.90
2023-03-17T02:05:54.256Z,1.92
2023-03-17T02:08:20.561Z,2.00
2023-03-17T02:10:49.120Z,2.10
2023-03-17T02:13:16.463Z,2.10
2023-03-17T02:15:45.836Z,2.30
2023-03-17T02:18:12.786Z,1.92
2023-03-17T02:20:39.068Z,2.00
2023-03-17T02:23:07.294Z,2.15
2023-03-17T02:25:36.049Z,2.00
2023-03-17T02:28:10.974Z,2.08
2023-03-17T02:30:37.244Z,2.10
2023-03-17T02:33:03.634Z,1.75
2023-03-17T02:35:30.203Z,1.80
2023-03-17T02:37:56.820Z,1.90
2023-03-17T02:40:23.691Z,2.05
2023-03-17T02:42:50.547Z,2.30
2023-03-17T02:45:17.367Z,1.75
2023-03-17T02:47:43.648Z,2.08
2023-03-17T02:50:17.537Z,2.10
2023-03-17T02:52:43.799Z,2.05
2023-03-17T02:55:10.173Z,1.75
2023-03-17T02:57:36.568Z,1.75
2023-03-17T03:00:03.947Z,1.70
2023-03-17T03:02:30.272Z,2.00
2023-03-17T03:04:56.544Z,1.98
2023-03-17T03:07:22.957Z,1.80
2023-03-17T03:09:49.252Z,1.50
2023-03-17T03:12:15.587Z,1.65
2023-03-17T03:14:42.411Z,1.60
2023-03-17T03:17:08.719Z,1.80
2023-03-17T03:19:35.538Z,1.90
2023-03-17T03:22:01.872Z,1.98
2023-03-17T03:24:28.191Z,1.83
2023-03-17T03:26:54.539Z,1.73
2023-03-17T03:29:20.911Z,1.95
2023-03-17T03:31:47.239Z,1.70
2023-03-17T03:34:13.527Z,2.00
2023-03-17T03:36:39.949Z,1.90
2023-03-17T03:39:06.292Z,2.10
2023-03-17T03:41:32.588Z,1.98
2023-03-17T03:43:58.855Z,1.85
2023-03-17T03:46:25.239Z,1.85
2023-03-17T03:48:51.543Z,2.00
2023-03-17T03:51:17.892Z,1.87
2023-03-17T03:53:44.494Z,1.98
2023-03-17T03:56:10.785Z,1.80
2023-03-17T03:58:37.116Z,1.80
2023-03-17T04:01:06.242Z,1.88
2023-03-17T04:03:32.848Z,1.53
2023-03-17T04:05:59.571Z,1.48
2023-03-17T04:08:25.867Z,1.90
2023-03-17T04:10:52.233Z,1.92
2023-03-17T04:13:18.576Z,1.90
2023-03-17T04:15:44.914Z,1.90
2023-03-17T04:18:11.184Z,1.95
2023-03-17T04:20:37.463Z,1.77
2023-03-17T04:23:03.843Z,1.90
2023-03-17T04:25:30.175Z,2.70
2023-03-17T04:27:56.447Z,1.60
2023-03-17T04:30:22.726Z,1.92
2023-03-17T04:32:49.076Z,2.00
2023-03-17T04:35:18.841Z,2.10
2023-03-17T04:37:45.718Z,1.70
2023-03-17T04:40:13.480Z,2.07
2023-03-17T04:42:40.989Z,2.00
2023-03-17T04:45:09.946Z,1.92
2023-03-17T04:47:36.703Z,2.38
2023-03-17T04:50:04.236Z,1.88
2023-03-17T04:52:30.896Z,1.80
2023-03-17T04:54:57.319Z,2.15
2023-03-17T04:57:23.592Z,2.50
2023-03-17T04:59:50.189Z,2.00
2023-03-17T05:02:16.718Z,1.73
2023-03-17T05:04:43.284Z,2.13
2023-03-17T05:07:09.721Z,2.10
2023-03-17T05:09:38.802Z,2.20
2023-03-17T05:12:05.807Z,2.25
2023-03-17T05:14:32.371Z,2.00
2023-03-17T05:16:58.763Z,2.00
2023-03-17T05:19:25.141Z,1.75
2023-03-17T05:21:51.549Z,2.30
2023-03-17T05:24:17.894Z,2.10
2023-03-17T05:26:44.475Z,2.05
2023-03-17T05:29:10.884Z,2.00
2023-03-17T05:31:37.299Z,2.00
2023-03-17T05:34:04.274Z,2.20
2023-03-17T05:36:30.790Z,1.65
2023-03-17T05:38:57.206Z,1.80
2023-03-17T05:41:23.622Z,2.00
2023-03-17T05:43:49.994Z,2.10
2023-03-17T05:46:17.994Z,2.10
2023-03-17T05:48:45.548Z,2.00
2023-03-17T05:51:11.828Z,2.00
2023-03-17T05:53:38.193Z,1.90
2023-03-17T05:56:04.748Z,1.67
2023-03-17T05:58:31.122Z,2.25
2023-03-17T06:00:58.159Z,1.98
2023-03-17T06:03:24.760Z,1.88
2023-03-17T06:05:51.160Z,1.70
2023-03-17T06:08:17.651Z,1.70
2023-03-17T06:10:44.047Z,2.00
2023-03-17T06:13:10.717Z,1.85
2023-03-17T06:15:37.123Z,1.70
2023-03-17T06:18:04.571Z,2.00
2023-03-17T06:20:32.187Z,1.75
2023-03-17T06:23:04.385Z,1.92
2023-03-17T06:25:33.410Z,1.98
2023-03-17T06:28:00.306Z,1.90
2023-03-17T06:30:26.730Z,1.87
2023-03-17T06:32:53.207Z,1.88
2023-03-17T06:35:19.722Z,1.80
2023-03-17T06:37:46.165Z,1.70
2023-03-17T06:40:13.160Z,1.80
2023-03-17T06:42:39.598Z,2.00
2023-03-17T06:45:06.538Z,2.10
2023-03-17T06:47:32.940Z,2.03
2023-03-17T06:49:59.281Z,1.63
2023-03-17T06:52:25.578Z,2.10
2023-03-17T06:54:51.959Z,1.80
2023-03-17T06:57:18.421Z,2.08
2023-03-17T06:59:44.706Z,2.10
2023-03-17T07:02:11.968Z,1.80
2023-03-17T07:04:38.472Z,2.20
2023-03-17T07:07:05.328Z,1.80
2023-03-17T07:09:33.269Z,2.00
2023-03-17T07:12:00.790Z,2.15
2023-03-17T07:14:27.232Z,2.00
2023-03-17T07:16:53.620Z,2.05
2023-03-17T07:19:20.034Z,1.80
2023-03-17T07:21:47.154Z,1.90
2023-03-17T07:24:13.607Z,1.95
2023-03-17T07:26:40.073Z,2.20
2023-03-17T07:29:07.396Z,2.10
2023-03-17T07:31:33.884Z,2.40
2023-03-17T07:34:00.276Z,2.20
2023-03-17T07:36:26.717Z,2.20
2023-03-17T07:38:53.093Z,2.35
2023-03-17T07:41:19.540Z,2.13
2023-03-17T07:43:45.928Z,2.23
2023-03-17T07:46:12.460Z,2.20
2023-03-17T07:48:39.646Z,2.20
2023-03-17T07:51:05.990Z,2.28
2023-03-17T07:53:32.395Z,2.30
2023-03-17T07:55:58.828Z,2.60
2023-03-17T07:58:25.281Z,2.42
2023-03-17T08:00:52.741Z,2.90
2023-03-17T08:03:19.301Z,2.15
2023-03-17T08:05:45.838Z,2.55
2023-03-17T08:08:12.178Z,2.30
2023-03-17T08:10:38.552Z,2.20
2023-03-17T08:13:04.978Z,2.60
2023-03-17T08:15:31.628Z,2.15
2023-03-17T08:17:58.632Z,2.42
2023-03-17T08:20:25.045Z,2.30
2023-03-17T08:22:51.488Z,2.90
2023-03-17T08:25:17.946Z,2.25
2023-03-17T08:27:44.413Z,3.13
2023-03-17T08:30:11.626Z,2.47
2023-03-17T08:32:38.251Z,2.60
2023-03-17T08:35:04.984Z,2.40
2023-03-17T08:37:31.934Z,2.70
2023-03-17T08:39:58.237Z,2.65
2023-03-17T08:42:24.785Z,2.80
2023-03-17T08:44:51.189Z,2.50
2023-03-17T08:47:17.572Z,2.55
2023-03-17T08:49:44.021Z,2.90
2023-03-17T08:52:10.498Z,2.80
2023-03-17T08:54:37.043Z,3.42
2023-03-17T08:57:03.467Z,2.90
2023-03-17T08:59:29.952Z,2.70
2023-03-17T09:01:56.839Z,3.00
2023-03-17T09:04:23.242Z,3.08
2023-03-17T09:07:02.422Z,2.85
2023-03-17T09:09:30.078Z,2.97
2023-03-17T09:11:56.471Z,3.53
2023-03-17T09:14:22.949Z,2.95
2023-03-17T09:16:49.523Z,2.63
2023-03-17T09:19:16.028Z,3.20
2023-03-17T09:21:42.559Z,2.60
2023-03-17T09:24:09.297Z,3.22
2023-03-17T09:26:36.448Z,3.17
2023-03-17T09:29:04.658Z,2.60
2023-03-17T09:31:32.631Z,3.00
2023-03-17T09:33:59.143Z,3.83
2023-03-17T09:36:25.628Z,2.70
2023-03-17T09:38:52.037Z,3.42
2023-03-17T09:41:21.337Z,3.45
2023-03-17T09:44:05.762Z,3.30
2023-03-17T09:46:48.371Z,3.43
2023-03-17T09:49:18.166Z,2.80
2023-03-17T09:51:45.397Z,2.95
2023-03-17T09:54:18.706Z,3.83
2023-03-17T09:56:48.826Z,2.45
2023-03-17T09:59:35.452Z,2.70
2023-03-17T10:02:03.062Z,3.00
2023-03-17T10:04:29.674Z,3.20
2023-03-17T10:07:02.079Z,2.80
2023-03-17T10:09:45.321Z,2.95
2023-03-17T10:12:37.870Z,3.50
2023-03-17T10:15:21.311Z,3.08
2023-03-17T10:17:47.956Z,3.35
2023-03-17T10:20:21.343Z,3.70
2023-03-17T10:23:00.815Z,3.90
2023-03-17T10:25:36.537Z,2.90
2023-03-17T10:28:29.587Z,3.60
2023-03-17T10:31:06.456Z,2.88
2023-03-17T10:33:32.874Z,3.30
2023-03-17T10:36:07.366Z,3.53
2023-03-17T10:38:33.731Z,3.60
2023-03-17T10:41:06.180Z,3.10
2023-03-17T10:43:48.648Z,3.20
2023-03-17T10:46:21.563Z,3.63
2023-03-17T10:49:02.163Z,3.58
2023-03-17T10:51:34.399Z,3.70
2023-03-17T10:54:02.757Z,3.40
2023-03-17T10:56:34.895Z,3.88
2023-03-17T10:59:08.745Z,3.60
2023-03-17T11:01:47.042Z,3.97
2023-03-17T11:04:33.869Z,3.37
2023-03-17T11:07:06.848Z,3.78
2023-03-17T11:09:37.703Z,3.97
2023-03-17T11:12:22.602Z,3.80
2023-03-17T11:14:49.376Z,3.45
2023-03-17T11:17:28.257Z,4.30
2023-03-17T11:20:11.945Z,4.05
2023-03-17T11:22:40.702Z,4.03
2023-03-17T11:25:18.337Z,3.22
2023-03-17T11:27:53.103Z,4.15
2023-03-17T11:30:56.472Z,4.50
2023-03-17T11:33:35.123Z,3.95
2023-03-17T11:36:51.977Z,3.97
2023-03-17T11:39:51.957Z,4.05
2023-03-17T11:42:26.461Z,3.80
2023-03-17T11:45:15.491Z,3.90
2023-03-17T11:47:47.920Z,4.40
2023-03-17T11:50:39.238Z,4.40
2023-03-17T11:53:05.565Z,5.07
2023-03-17T11:55:57.245Z,4.45
2023-03-17T11:58:34.299Z,4.50
2023-03-17T12:01:02.719Z,4.53
2023-03-17T12:03:36.443Z,4.55
2023-03-17T12:06:09.776Z,4.70
2023-03-17T12:08:45.331Z,4.90
2023-03-17T12:11:16.449Z,5.00
2023-03-17T12:13:48.083Z,4.95
2023-03-17T12:16:19.914Z,4.40
2023-03-17T12:18:59.551Z,4.97
2023-03-17T12:21:55.590Z,4.78
2023-03-17T12:24:37.407Z,4.47
2023-03-17T12:27:11.536Z,4.53
2023-03-17T12:29:49.008Z,4.50
2023-03-17T12:32:21.072Z,4.38
2023-03-17T12:34:58.941Z,4.40
2023-03-17T12:37:29.322Z,4.37
2023-03-17T12:40:19.863Z,4.45
2023-03-17T12:42:52.164Z,4.90
2023-03-17T12:45:52.071Z,4.30
2023-03-17T12:48:51.389Z,4.88
2023-03-17T12:51:39.489Z,5.53
2023-03-17T12:54:18.088Z,4.10
2023-03-17T12:56:46.620Z,4.30
2023-03-17T12:59:20.699Z,4.68
2023-03-17T13:02:15.872Z,4.80
2023-03-17T13:04:57.112Z,4.70
2023-03-17T13:07:51.178Z,4.30
2023-03-17T13:10:41.121Z,4.10
2023-03-17T13:13:11.016Z,4.60
2023-03-17T13:15:38.334Z,4.32
2023-03-17T13:18:13.898Z,4.43
2023-03-17T13:20:51.931Z,4.28
2023-03-17T13:23:20.910Z,4.45
2023-03-17T13:25:52.854Z,4.50
2023-03-17T13:28:39.529Z,4.80
2023-03-17T13:31:14.475Z,4.27
2023-03-17T13:33:45.707Z,4.65
2023-03-17T13:36:43.172Z,4.43
2023-03-17T13:39:25.107Z,5.00
2023-03-17T13:42:25.749Z,4.43
2023-03-17T13:45:07.335Z,4.80
2023-03-17T13:47:35.239Z,5.10
2023-03-17T13:50:23.255Z,4.05
2023-03-17T13:53:04.724Z,4.28
2023-03-17T13:55:36.093Z,4.90
2023-03-17T13:58:10.586Z,4.50
2023-03-17T14:00:40.949Z,4.82
2023-03-17T14:03:13.102Z,4.80
2023-03-17T14:05:40.782Z,5.00
2023-03-17T14:08:27.153Z,4.72
2023-03-17T14:10:55.275Z,4.70
2023-03-17T14:13:26.582Z,4.97
2023-03-17T14:16:12.041Z,5.10
2023-03-17T14:18:42.138Z,4.28
2023-03-17T14:21:23.520Z,4.30
2023-03-17T14:23:58.010Z,4.37
2023-03-17T14:26:27.053Z,4.80
2023-03-17T14:28:53.971Z,5.13
2023-03-17T14:31:26.143Z,4.80
2023-03-17T14:34:01.494Z,5.25
2023-03-17T14:36:32.341Z,4.70
2023-03-17T14:38:58.720Z,5.13
2023-03-17T14:41:27.597Z,4.65
2023-03-17T14:43:58.568Z,4.55
2023-03-17T14:46:26.344Z,4.40
2023-03-17T14:49:04.391Z,4.97
2023-03-17T14:51:41.237Z,4.70
2023-03-17T14:54:21.621Z,4.50
2023-03-17T14:56:52.817Z,3.88
2023-03-17T14:59:29.310Z,5.18
2023-03-17T15:01:58.046Z,4.10
2023-03-17T15:04:34.350Z,4.03
2023-03-17T15:07:05.944Z,4.50
2023-03-17T15:09:41.138Z,4.70
2023-03-17T15:12:18.507Z,4.95
2023-03-17T15:14:46.121Z,4.47
2023-03-17T15:17:20.626Z,4.50
2023-03-17T15:19:49.892Z,4.22
2023-03-17T15:22:24.104Z,4.00
2023-03-17T15:25:18.525Z,4.25
2023-03-17T15:27:46.128Z,3.83
2023-03-17T15:30:13.411Z,4.00
2023-03-17T15:32:39.986Z,4.47
2023-03-17T15:35:12.231Z,4.45
2023-03-17T15:37:38.612Z,4.32
2023-03-17T15:40:06.078Z,4.70
2023-03-17T15:42:35.489Z,4.25
2023-03-17T15:45:03.065Z,4.70
2023-03-17T15:47:32.604Z,4.32
2023-03-17T15:50:23.582Z,4.93
2023-03-17T15:52:51.014Z,5.40
2023-03-17T15:55:23.129Z,4.57
2023-03-17T15:57:56.918Z,4.75
2023-03-17T16:00:25.867Z,4.95
2023-03-17T16:02:54.289Z,4.82
2023-03-17T16:05:26.505Z,4.50
2023-03-17T16:07:52.929Z,4.20
2023-03-17T16:10:24.702Z,4.57
2023-03-17T16:12:51.520Z,4.80
2023-03-17T16:15:24.009Z,4.53
2023-03-17T16:18:03.290Z,4.20
2023-03-17T16:20:40.991Z,4.50
2023-03-17T16:23:20.049Z,4.22
2023-03-17T16:25:49.872Z,4.68
2023-03-17T16:28:26.622Z,4.45
2023-03-17T16:30:55.325Z,3.73
2023-03-17T16:33:21.657Z,4.40
2023-03-17T16:35:48.485Z,4.57
2023-03-17T16:38:17.700Z,4.70
2023-03-17T16:40:47.261Z,5.00
2023-03-17T16:43:35.845Z,4.93
2023-03-17T16:46:03.393Z,5.30
2023-03-17T16:48:30.572Z,5.30
2023-03-17T16:50:57.726Z,4.68
2023-03-17T16:53:24.716Z,4.90
2023-03-17T16:55:53.151Z,3.90
2023-03-17T16:58:23.025Z,4.10
2023-03-17T17:00:52.168Z,4.60
2023-03-17T17:03:18.672Z,4.78
2023-03-17T17:05:45.642Z,4.40
2023-03-17T17:08:12.432Z,5.00
2023-03-17T17:10:39.236Z,4.38
2023-03-17T17:13:07.819Z,4.38
2023-03-17T17:15:35.818Z,4.60
2023-03-17T17:18:05.269Z,5.38
2023-03-17T17:20:34.506Z,4.40
2023-03-17T17:23:02.508Z,4.60
2023-03-17T17:25:29.769Z,4.60
2023-03-17T17:27:57.043Z,4.43
2023-03-17T17:30:25.915Z,4.53
2023-03-17T17:32:52.506Z,4.97
2023-03-17T17:35:19.041Z,4.22
2023-03-17T17:37:45.365Z,4.82
2023-03-17T17:40:15.043Z,4.10
2023-03-17T17:42:42.296Z,4.40
2023-03-17T17:45:09.350Z,4.50
2023-03-17T17:47:36.631Z,4.68
2023-03-17T17:50:04.157Z,5.03
2023-03-17T17:52:30.591Z,4.57
2023-03-17T17:54:57.056Z,5.47
2023-03-17T17:57:24.251Z,6.37
2023-03-17T17:59:50.753Z,8.70
2023-03-17T18:02:17.225Z,8.77
2023-03-17T18:04:43.609Z,7.93
2023-03-17T18:07:13.638Z,7.32
2023-03-17T18:09:42.005Z,6.50
2023-03-17T18:12:08.675Z,6.05
2023-03-17T18:14:34.982Z,5.28
2023-03-17T18:17:02.299Z,5.72
2023-03-17T18:19:28.650Z,5.65
2023-03-17T18:21:55.004Z,5.73
2023-03-17T18:24:21.477Z,5.90
2023-03-17T18:26:47.889Z,4.82
2023-03-17T18:29:14.298Z,5.25
2023-03-17T18:31:42.422Z,5.40
2023-03-17T18:34:12.658Z,5.20
2023-03-17T18:36:39.630Z,4.93
2023-03-17T18:39:07.011Z,5.63
2023-03-17T18:41:34.342Z,5.30
2023-03-17T18:44:00.625Z,5.35
2023-03-17T18:46:26.931Z,5.13
2023-03-17T18:48:54.310Z,5.80
2023-03-17T18:51:20.640Z,6.72
2023-03-17T18:53:47.029Z,6.40
2023-03-17T18:56:14.473Z,7.18
2023-03-17T18:58:42.151Z,7.37
2023-03-17T19:01:08.820Z,7.07
2023-03-17T19:03:41.327Z,7.80
2023-03-17T19:06:13.394Z,7.25
2023-03-17T19:08:41.549Z,7.32
2023-03-17T19:11:10.461Z,7.57
2023-03-17T19:13:37.744Z,6.53
2023-03-17T19:16:05.803Z,6.75
2023-03-17T19:18:32.149Z,7.40
2023-03-17T19:20:58.684Z,6.93
2023-03-17T19:23:25.602Z,6.60
2023-03-17T19:25:52.146Z,7.07
2023-03-17T19:28:18.951Z,6.60
2023-03-17T19:30:46.477Z,6.72
2023-03-17T19:33:14.603Z,7.65
2023-03-17T19:35:42.795Z,7.47
2023-03-17T19:38:09.439Z,8.52
2023-03-17T19:40:38.086Z,8.05
2023-03-17T19:43:05.024Z,8.05
2023-03-17T19:45:32.161Z,7.50
2023-03-17T19:47:59.116Z,7.27
2023-03-17T19:50:25.831Z,7.68
2023-03-17T19:52:52.857Z,8.10
2023-03-17T19:55:21.539Z,7.78
2023-03-17T19:57:48.305Z,7.55
2023-03-17T20:00:15.260Z,9.23
2023-03-17T20:02:41.739Z,8.82
2023-03-17T20:05:09.572Z,8.20
2023-03-17T20:07:36.212Z,8.10
2023-03-17T20:10:04.189Z,8.00
2023-03-17T20:12:31.052Z,7.77
2023-03-17T20:14:57.377Z,7.60
2023-03-17T20:17:23.764Z,8.40
2023-03-17T20:19:50.126Z,8.20
2023-03-17T20:22:17.893Z,9.48
2023-03-17T20:24:44.403Z,9.30
2023-03-17T20:27:10.912Z,8.35
2023-03-17T20:29:37.333Z,9.27
2023-03-17T20:32:03.912Z,8.77
2023-03-17T20:34:30.486Z,9.40
2023-03-17T20:36:56.960Z,8.03
2023-03-17T20:39:23.561Z,8.52
2023-03-17T20:41:50.495Z,8.35
2023-03-17T20:44:18.263Z,7.90
2023-03-17T20:46:45.458Z,7.78
2023-03-17T20:49:12.120Z,7.97
2023-03-17T20:51:38.509Z,7.45
2023-03-17T20:54:05.067Z,7.60
2023-03-17T20:56:32.455Z,7.75
2023-03-17T20:58:58.993Z,7.20
2023-03-17T21:01:25.568Z,7.73
2023-03-17T21:03:51.980Z,7.40
2023-03-17T21:06:18.636Z,7.38
2023-03-17T21:08:45.409Z,7.35
2023-03-17T21:11:16.853Z,7.60
2023-03-17T21:13:43.673Z,6.73
2023-03-17T21:16:16.857Z,7.40
2023-03-17T21:18:43.339Z,7.05
2023-03-17T21:21:09.727Z,6.70
2023-03-17T21:23:36.275Z,6.70
2023-03-17T21:26:02.680Z,6.90
2023-03-17T21:28:29.818Z,6.97
2023-03-17T21:30:56.117Z,7.47
2023-03-17T21:33:22.483Z,7.00
2023-03-17T21:35:49.906Z,7.03
2023-03-17T21:38:16.350Z,6.87
2023-03-17T21:40:42.734Z,6.82
2023-03-17T21:43:09.477Z,6.60
2023-03-17T21:45:36.712Z,6.30
2023-03-17T21:48:03.510Z,6.38
2023-03-17T21:50:30.023Z,5.73
2023-03-17T21:52:56.673Z,6.20
2023-03-17T21:55:23.072Z,5.97
2023-03-17T21:57:49.723Z,5.80
2023-03-17T22:00:16.552Z,5.80
2023-03-17T22:02:43.020Z,6.40
2023-03-17T22:05:10.280Z,5.82
2023-03-17T22:07:37.353Z,6.13
2023-03-17T22:10:04.721Z,6.40
2023-03-17T22:12:31.122Z,6.22
2023-03-17T22:14:57.450Z,6.23
2023-03-17T22:17:24.012Z,6.50
2023-03-17T22:19:50.436Z,6.78
2023-03-17T22:22:16.893Z,6.80
2023-03-17T22:24:43.259Z,6.60
2023-03-17T22:27:09.654Z,6.80
2023-03-17T22:29:36.039Z,6.60
2023-03-17T22:32:02.513Z,6.93
2023-03-17T22:34:29.513Z,6.70
2023-03-17T22:36:55.828Z,6.88
2023-03-17T22:39:22.276Z,7.30
2023-03-17T22:41:48.580Z,7.20
2023-03-17T22:44:14.987Z,7.15
2023-03-17T22:46:41.496Z,7.82
2023-03-17T22:49:08.956Z,7.13
2023-03-17T22:51:36.056Z,7.60
2023-03-17T22:54:02.552Z,8.07
2023-03-17T22:56:29.046Z,7.72
2023-03-17T22:58:55.841Z,7.10
2023-03-17T23:01:23.074Z,7.88
2023-03-17T23:03:49.519Z,7.37
2023-03-17T23:06:16.204Z,7.55
2023-03-17T23:08:43.596Z,7.30
2023-03-17T23:11:12.938Z,7.10
2023-03-17T23:13:39.983Z,8.00
2023-03-17T23:16:06.905Z,6.40
2023-03-17T23:18:34.151Z,7.00
2023-03-17T23:21:02.183Z,7.78
2023-03-17T23:23:28.759Z,7.15
2023-03-17T23:25:55.190Z,7.10
2023-03-17T23:28:21.844Z,7.53
2023-03-17T23:30:48.355Z,7.50
2023-03-17T23:33:15.042Z,7.45
2023-03-17T23:35:41.475Z,7.93
2023-03-17T23:38:07.912Z,7.63
2023-03-17T23:40:36.852Z,7.70
2023-03-17T23:43:03.792Z,7.68
2023-03-17T23:45:30.172Z,7.57
2023-03-17T23:47:56.584Z,7.80
2023-03-17T23:50:25.198Z,8.20
2023-03-17T23:53:04.082Z,7.57
2023-03-17T23:55:36.989Z,7.72
2023-03-17T23:58:13.844Z,7.60
